North Plainfield, New Jersey
Current Conditions -  °F | °C
As of 3:15 PM on Sunday 21 Dec 2014 (Local Time) from KLDJ Reporting Station
Overcast Overcast  
Wind Chill: 35°   Ceiling: 3100
Heat Index: 40°   Visibility: 10mi
Dew Point: 31°   Wind: 8mph
Humidity: 69%   Direction: 320°NW
Pressure: 30.32"   Gusts: NA
Location:  40.62°N, 74.43°W
Report Text: KLDJ 212015Z AUTO 32007KT 10SM SCT021 OVC031 05/M01 A3032 RMK AO2 T00451007
Loading
Personal Weather Stations






























Interactive Weather Map New forecast layout! Learn more

10-Day Weather Forecast

Advertisements
Track Severe Weather on mobile